Time;durP1;ratioP1;P1;durP2;ratioP2;P2;SDS_P1;SDS_P2;PMS_P1;PMS_P2;Temp;Humidity;BMP_temperature;BMP_pressure;BME280_temperature;BME280_humidity;BME280_pressure;Samples;Min_cycle;Max_cycle;Signal;HPM_P1;HPM_P2
2022/09/14 00:02:13;;;;;;;0.63;0.40;;;14.30;99.90;;;;;;4954662;28;20031;-70
2022/09/14 00:04:40;;;;;;;0.95;0.57;;;14.30;99.90;;;;;;4954410;29;20026;-71
2022/09/14 00:07:07;;;;;;;2.80;0.82;;;14.20;99.90;;;;;;4954741;29;20046;-71
2022/09/14 00:09:33;;;;;;;4.03;0.90;;;14.20;99.90;;;;;;4955003;29;20032;-70
2022/09/14 00:11:58;;;;;;;1.25;0.90;;;14.20;99.90;;;;;;4955417;29;20026;-71
2022/09/14 00:14:27;;;;;;;4.10;0.82;;;14.20;99.90;;;;;;4954892;29;20039;-72
2022/09/14 00:16:53;;;;;;;2.53;1.17;;;14.20;99.90;;;;;;4954515;29;20090;-70
2022/09/14 00:19:26;;;;;;;1.83;0.80;;;14.20;99.90;;;;;;4954412;29;20028;-71
2022/09/14 00:21:54;;;;;;;1.83;0.70;;;14.20;99.90;;;;;;4955254;29;20031;-71
2022/09/14 00:24:29;;;;;;;4.72;1.48;;;14.20;99.90;;;;;;4954718;29;20435;-72
2022/09/14 00:26:55;;;;;;;0.68;0.57;;;14.20;99.90;;;;;;4954184;29;20023;-70
2022/09/14 00:29:22;;;;;;;0.88;0.60;;;14.20;99.90;;;;;;4954827;29;20031;-71
2022/09/14 00:31:48;;;;;;;2.15;0.75;;;14.20;99.90;;;;;;4954469;29;20033;-71
2022/09/14 00:34:15;;;;;;;2.78;1.35;;;14.20;99.90;;;;;;4953661;29;20543;-70
2022/09/14 00:36:45;;;;;;;1.55;0.80;;;14.10;99.90;;;;;;4953072;28;20038;-71
2022/09/14 00:39:11;;;;;;;4.38;1.13;;;14.20;99.90;;;;;;4953594;29;20234;-70
2022/09/14 00:41:39;;;;;;;12.10;1.17;;;14.10;99.90;;;;;;4953657;29;20035;-71
2022/09/14 00:44:23;;;;;;;1.25;0.95;;;14.10;99.90;;;;;;4953938;29;20035;-71
2022/09/14 00:46:56;;;;;;;2.42;0.98;;;14.10;99.90;;;;;;4952896;29;20507;-71
2022/09/14 00:49:39;;;;;;;4.57;1.13;;;14.00;99.90;;;;;;4954362;29;20034;-72
2022/09/14 00:52:20;;;;;;;3.45;1.00;;;14.00;99.90;;;;;;4954589;29;20035;-71
2022/09/14 00:54:52;;;;;;;1.20;1.10;;;14.00;99.90;;;;;;4954356;29;20051;-71
2022/09/14 00:57:18;;;;;;;4.22;1.33;;;14.00;99.90;;;;;;4936819;29;20031;-71
2022/09/14 00:59:49;;;;;;;0.77;0.55;;;14.00;99.90;;;;;;4953744;29;20398;-71
2022/09/14 01:02:17;;;;;;;7.72;1.10;;;14.00;99.90;;;;;;4953571;29;20028;-71
2022/09/14 01:04:43;;;;;;;6.18;1.15;;;13.90;99.90;;;;;;4953516;29;20012;-70
2022/09/14 01:07:26;;;;;;;2.63;1.30;;;14.00;99.90;;;;;;4954282;29;20028;-71
2022/09/14 01:10:09;;;;;;;3.03;1.55;;;14.00;99.90;;;;;;4953953;29;20038;-71
2022/09/14 01:12:44;;;;;;;3.25;1.65;;;14.00;99.90;;;;;;4951073;29;20027;-71
2022/09/14 01:15:28;;;;;;;4.40;1.75;;;14.00;99.90;;;;;;4952959;28;20039;-72
2022/09/14 01:18:14;;;;;;;;;;;14.00;99.90;;;;;;4953843;29;20044;-71
2022/09/14 01:20:54;;;;;;;6.50;1.60;;;14.00;99.90;;;;;;4953879;29;19914;-71
2022/09/14 01:23:34;;;;;;;3.38;1.40;;;14.00;99.90;;;;;;4953751;29;20024;-71
2022/09/14 01:26:20;;;;;;;2.85;1.63;;;14.10;99.90;;;;;;4953034;29;20032;-71
2022/09/14 01:29:01;;;;;;;1.55;1.10;;;14.10;99.90;;;;;;4952601;29;20027;-70
2022/09/14 01:31:45;;;;;;;5.97;1.63;;;14.10;99.90;;;;;;4935573;29;20042;-71
2022/09/14 01:34:22;;;;;;;14.50;1.55;;;14.10;99.90;;;;;;4952274;29;20475;-71
2022/09/14 01:36:54;;;;;;;3.63;1.10;;;14.10;99.90;;;;;;4953541;28;20035;-71
2022/09/14 01:39:21;;;;;;;5.70;1.65;;;14.20;99.90;;;;;;4952948;29;20043;-71
2022/09/14 01:41:50;;;;;;;4.05;1.00;;;14.20;99.90;;;;;;4953629;29;20070;-72
2022/09/14 01:44:22;;;;;;;4.40;1.65;;;14.20;99.90;;;;;;4953122;29;20058;-71
2022/09/14 01:46:53;;;;;;;2.47;1.20;;;14.10;99.90;;;;;;4953354;29;20543;-71
2022/09/14 01:49:31;;;;;;;8.25;1.35;;;14.20;99.90;;;;;;4953474;29;20031;-72
2022/09/14 01:52:22;;;;;;;5.25;1.23;;;14.30;99.90;;;;;;4953147;29;20027;-71
2022/09/14 01:54:59;;;;;;;2.72;1.10;;;14.20;99.90;;;;;;4953009;29;20088;-71
2022/09/14 01:57:32;;;;;;;16.30;1.48;;;14.20;99.90;;;;;;4953155;29;20035;-72
2022/09/14 02:00:04;;;;;;;2.00;1.10;;;14.20;99.90;;;;;;4953018;29;20054;-71
2022/09/14 02:02:35;;;;;;;1.65;1.02;;;14.20;99.90;;;;;;4952868;29;20059;-72
2022/09/14 02:05:17;;;;;;;1.40;0.82;;;14.20;99.90;;;;;;4953271;29;20032;-71
2022/09/14 02:07:43;;;;;;;5.45;0.90;;;14.20;99.90;;;;;;4952254;29;20036;-71
2022/09/14 02:10:11;;;;;;;8.13;1.48;;;14.20;99.90;;;;;;4952855;29;20876;-71
2022/09/14 02:12:38;;;;;;;4.80;1.10;;;14.20;99.90;;;;;;4952338;29;20476;-72
2022/09/14 02:15:04;;;;;;;1.77;0.90;;;14.20;99.90;;;;;;4935616;29;20031;-72
2022/09/14 02:17:30;;;;;;;4.82;1.30;;;14.20;99.90;;;;;;4952563;29;20040;-72
2022/09/14 02:19:59;;;;;;;5.43;0.98;;;14.20;99.90;;;;;;4952896;29;20027;-72
2022/09/14 02:22:26;;;;;;;3.13;1.15;;;14.20;99.90;;;;;;4953088;29;20028;-72
2022/09/14 02:24:53;;;;;;;5.82;1.27;;;14.20;99.90;;;;;;4952671;29;20029;-72
2022/09/14 02:27:19;;;;;;;4.40;1.40;;;14.20;99.90;;;;;;4956886;29;20031;-71
2022/09/14 02:29:45;;;;;;;7.32;1.38;;;14.20;99.90;;;;;;4955756;29;20369;-71
2022/09/14 02:32:22;;;;;;;5.40;1.30;;;14.20;99.90;;;;;;4956276;29;20082;-71
2022/09/14 02:35:05;;;;;;;3.92;1.15;;;14.20;99.90;;;;;;4956584;29;20038;-71
2022/09/14 02:37:49;;;;;;;1.05;0.70;;;14.20;99.90;;;;;;4956575;29;20031;-72
2022/09/14 02:40:53;;;;;;;4.63;1.60;;;14.20;99.90;;;;;;4955648;29;20034;-71
2022/09/14 02:43:35;;;;;;;7.45;1.25;;;14.30;99.90;;;;;;4924666;29;20078;-71
2022/09/14 02:46:08;;;;;;;3.38;0.77;;;14.30;99.90;;;;;;4939358;29;20062;-73
2022/09/14 02:48:39;;;;;;;10.02;1.30;;;14.30;99.90;;;;;;4955673;29;20106;-72
2022/09/14 02:51:19;;;;;;;3.72;1.45;;;14.30;99.90;;;;;;4956037;29;20055;-73
2022/09/14 02:53:52;;;;;;;1.70;0.90;;;14.20;99.90;;;;;;4956745;29;20085;-70
2022/09/14 02:56:20;;;;;;;3.20;1.00;;;14.20;99.90;;;;;;4955878;29;20123;-71
2022/09/14 02:58:45;;;;;;;4.88;1.27;;;14.20;99.90;;;;;;4955712;29;20036;-72
2022/09/14 03:01:14;;;;;;;3.15;0.98;;;14.20;99.90;;;;;;4955757;29;20039;-71
2022/09/14 03:03:40;;;;;;;3.88;1.17;;;14.10;99.90;;;;;;4955697;29;20513;-71
2022/09/14 03:06:06;;;;;;;4.00;1.30;;;14.10;99.90;;;;;;4955483;29;20032;-71
2022/09/14 03:08:32;;;;;;;3.72;1.05;;;14.10;99.90;;;;;;4956108;29;20046;-72
2022/09/14 03:10:58;;;;;;;4.60;1.38;;;14.10;99.90;;;;;;4956160;29;20027;-72
2022/09/14 03:13:24;;;;;;;3.00;1.27;;;14.10;99.90;;;;;;4956404;29;20039;-71
2022/09/14 03:15:50;;;;;;;2.67;1.15;;;14.10;99.90;;;;;;4955338;29;20079;-72
2022/09/14 03:18:16;;;;;;;6.32;1.35;;;14.10;99.90;;;;;;4956286;29;20483;-71
2022/09/14 03:20:42;;;;;;;4.57;1.17;;;14.10;99.90;;;;;;4955838;29;20038;-71
2022/09/14 03:23:09;;;;;;;4.97;1.27;;;14.00;99.90;;;;;;4955125;29;20074;-71
2022/09/14 03:25:40;;;;;;;3.45;1.63;;;14.00;99.90;;;;;;4955461;29;20068;-71
2022/09/14 03:28:07;;;;;;;6.15;0.95;;;13.90;99.90;;;;;;4955685;29;20035;-70
2022/09/14 03:30:33;;;;;;;8.40;1.65;;;13.90;99.90;;;;;;4955199;29;20027;-72
2022/09/14 03:32:59;;;;;;;1.98;1.10;;;13.80;99.90;;;;;;4955163;29;20050;-72
2022/09/14 03:35:26;;;;;;;2.67;1.25;;;13.80;99.90;;;;;;4955431;29;20039;-71
2022/09/14 03:37:52;;;;;;;4.68;1.40;;;13.80;99.90;;;;;;4953544;28;20047;-72
2022/09/14 03:40:17;;;;;;;3.20;1.05;;;13.80;99.90;;;;;;4956172;29;20059;-71
2022/09/14 03:42:47;;;;;;;5.15;1.77;;;13.80;99.90;;;;;;4955393;29;20066;-70
2022/09/14 03:45:14;;;;;;;5.78;1.40;;;13.80;99.90;;;;;;4955615;29;20034;-71
2022/09/14 03:47:39;;;;;;;3.00;1.63;;;13.80;99.90;;;;;;4954651;29;20032;-71
2022/09/14 03:50:08;;;;;;;4.10;1.25;;;13.80;99.90;;;;;;4955656;29;20036;-72
2022/09/14 03:52:34;;;;;;;3.80;1.42;;;13.70;99.90;;;;;;4954829;29;20027;-71
2022/09/14 03:55:01;;;;;;;3.63;1.73;;;13.70;99.90;;;;;;4955737;29;20028;-70
2022/09/14 03:57:27;;;;;;;7.38;1.92;;;13.70;99.90;;;;;;4954381;29;20035;-70
2022/09/14 03:59:53;;;;;;;3.17;1.73;;;13.80;99.90;;;;;;4955370;29;20365;-71
2022/09/14 04:02:22;;;;;;;7.93;1.48;;;13.70;99.90;;;;;;4955638;29;20062;-70
2022/09/14 04:04:53;;;;;;;1.33;1.10;;;13.70;99.90;;;;;;4955217;29;20035;-71
2022/09/14 04:07:19;;;;;;;3.50;1.80;;;13.80;99.90;;;;;;4954925;29;20035;-70
2022/09/14 04:09:44;;;;;;;6.65;1.65;;;13.80;99.90;;;;;;4955246;29;20028;-70
2022/09/14 04:12:10;;;;;;;7.43;1.48;;;13.80;99.90;;;;;;4954914;29;20759;-71
2022/09/14 04:14:35;;;;;;;6.50;1.40;;;13.80;99.90;;;;;;4954903;29;20055;-71
2022/09/14 04:17:01;;;;;;;4.82;1.73;;;13.80;99.90;;;;;;4955054;29;20063;-70
2022/09/14 04:19:27;;;;;;;4.03;1.77;;;13.80;99.90;;;;;;4955136;29;20020;-71
2022/09/14 04:21:53;;;;;;;1.52;1.42;;;13.80;99.90;;;;;;4953997;29;20038;-70
2022/09/14 04:24:18;;;;;;;4.38;2.05;;;13.80;99.90;;;;;;4953726;29;20027;-71
2022/09/14 04:26:44;;;;;;;3.30;1.85;;;13.80;99.90;;;;;;4954609;29;20027;-71
2022/09/14 04:29:11;;;;;;;2.75;1.65;;;13.80;99.90;;;;;;4954403;29;20031;-70
2022/09/14 04:31:37;;;;;;;8.27;1.92;;;13.70;99.90;;;;;;4954059;29;20888;-71
2022/09/14 04:34:03;;;;;;;2.78;1.40;;;13.70;99.90;;;;;;4954681;29;20053;-70
2022/09/14 04:36:30;;;;;;;3.58;1.70;;;13.70;99.90;;;;;;4951817;29;20091;-71
2022/09/14 04:38:59;;;;;;;4.40;1.83;;;13.80;99.90;;;;;;4952062;29;20048;-71
2022/09/14 04:41:26;;;;;;;4.50;1.98;;;13.80;99.90;;;;;;4954891;29;20149;-71
2022/09/14 04:43:52;;;;;;;2.92;1.77;;;13.70;99.90;;;;;;4953900;29;20019;-71
2022/09/14 04:46:25;;;;;;;3.47;1.83;;;13.80;99.90;;;;;;4954383;29;20054;-72
2022/09/14 04:48:51;;;;;;;10.55;1.90;;;13.80;99.90;;;;;;4954254;29;20028;-73
2022/09/14 04:51:20;;;;;;;4.22;2.13;;;13.80;99.90;;;;;;4953972;29;20476;-72
2022/09/14 04:53:49;;;;;;;7.18;2.80;;;13.80;99.90;;;;;;4952817;29;20035;-72
2022/09/14 04:56:15;;;;;;;3.92;2.20;;;13.80;99.90;;;;;;4951407;29;20035;-72
2022/09/14 04:58:51;;;;;;;6.90;2.75;;;13.80;99.90;;;;;;4952047;29;20138;-72
2022/09/14 05:01:23;;;;;;;4.15;1.98;;;13.90;99.90;;;;;;4952771;29;20381;-72
2022/09/14 05:03:50;;;;;;;5.22;2.33;;;13.90;99.90;;;;;;4952565;29;20027;-71
2022/09/14 05:06:18;;;;;;;5.22;2.28;;;13.90;99.90;;;;;;4934332;29;20035;-71
2022/09/14 05:08:44;;;;;;;4.28;1.95;;;13.90;99.90;;;;;;4932901;29;20039;-70
2022/09/14 05:11:15;;;;;;;5.65;2.13;;;13.90;99.90;;;;;;4953325;29;20026;-72
2022/09/14 05:13:40;;;;;;;5.55;2.78;;;13.90;99.90;;;;;;4942812;29;20023;-71
2022/09/14 05:16:17;;;;;;;3.25;1.85;;;13.90;99.90;;;;;;4953770;29;20059;-71
2022/09/14 05:18:44;;;;;;;14.90;2.05;;;13.90;99.90;;;;;;4951054;29;20058;-71
2022/09/14 05:21:12;;;;;;;5.35;2.00;;;13.90;99.90;;;;;;4953237;29;20027;-71
2022/09/14 05:23:38;;;;;;;4.78;1.90;;;14.00;99.90;;;;;;4934182;29;20035;-71
2022/09/14 05:26:04;;;;;;;7.05;2.10;;;14.00;99.90;;;;;;4935872;29;20074;-71
2022/09/14 05:28:32;;;;;;;3.97;2.22;;;14.00;99.90;;;;;;4952400;29;20058;-72
2022/09/14 05:30:58;;;;;;;5.18;2.22;;;14.00;99.90;;;;;;4953323;29;20020;-72
2022/09/14 05:33:24;;;;;;;4.30;2.05;;;14.00;99.90;;;;;;4952554;29;20043;-72
2022/09/14 05:35:51;;;;;;;4.82;1.10;;;14.10;99.90;;;;;;4951558;29;20082;-72
2022/09/14 05:38:33;;;;;;;3.60;1.83;;;14.10;99.90;;;;;;4950888;29;20083;-73
2022/09/14 05:40:59;;;;;;;2.67;1.83;;;14.10;99.90;;;;;;4953549;29;20071;-73
2022/09/14 05:43:27;;;;;;;5.55;2.35;;;14.10;99.90;;;;;;4953853;29;20027;-73
2022/09/14 05:45:53;;;;;;;13.75;2.42;;;14.20;99.90;;;;;;4936677;29;20047;-73
2022/09/14 05:48:19;;;;;;;6.15;1.95;;;14.20;99.90;;;;;;4953902;29;20032;-71
2022/09/14 05:50:44;;;;;;;4.25;2.05;;;14.20;99.90;;;;;;4947450;29;20487;-72
2022/09/14 05:53:10;;;;;;;3.08;1.58;;;14.30;99.90;;;;;;4951894;29;20142;-74
2022/09/14 05:55:36;;;;;;;12.15;1.92;;;14.30;99.90;;;;;;4950962;29;20110;-73
2022/09/14 05:58:01;;;;;;;3.88;2.00;;;14.30;99.90;;;;;;4935308;29;20039;-72
2022/09/14 06:00:28;;;;;;;12.55;1.83;;;14.40;99.90;;;;;;4953135;29;20042;-72
2022/09/14 06:02:54;;;;;;;2.55;1.30;;;14.30;99.90;;;;;;4952223;29;20127;-73
2022/09/14 06:05:20;;;;;;;2.20;1.42;;;14.40;99.90;;;;;;4952345;29;20075;-71
2022/09/14 06:07:52;;;;;;;4.95;1.98;;;14.50;99.90;;;;;;4952981;29;20095;-72
2022/09/14 06:10:19;;;;;;;4.85;1.88;;;14.50;99.90;;;;;;4952880;29;20421;-72
2022/09/14 06:12:45;;;;;;;4.03;1.50;;;14.50;99.90;;;;;;4952511;29;20023;-72
2022/09/14 06:15:11;;;;;;;4.97;1.73;;;14.60;99.90;;;;;;4952277;29;20043;-72
2022/09/14 06:17:37;;;;;;;9.15;1.98;;;14.60;99.90;;;;;;4952795;29;20047;-72
2022/09/14 06:20:04;;;;;;;2.35;1.63;;;14.60;99.90;;;;;;4951308;29;20083;-72
2022/09/14 06:22:30;;;;;;;3.78;1.55;;;14.70;99.90;;;;;;4952480;29;21206;-71
2022/09/14 06:24:56;;;;;;;5.50;1.55;;;14.80;99.90;;;;;;4952911;29;20111;-72
2022/09/14 06:27:22;;;;;;;4.43;1.80;;;14.80;99.90;;;;;;4946659;29;20500;-74
2022/09/14 06:29:51;;;;;;;3.83;1.85;;;14.80;99.90;;;;;;4944094;29;20086;-72
2022/09/14 06:32:17;;;;;;;4.88;1.95;;;14.80;99.90;;;;;;4953009;29;20368;-71
2022/09/14 06:34:43;;;;;;;3.60;1.33;;;14.80;99.90;;;;;;4952703;29;20023;-72
2022/09/14 06:37:12;;;;;;;3.45;1.70;;;14.80;99.90;;;;;;4952716;28;20054;-73
2022/09/14 06:39:38;;;;;;;7.68;1.40;;;14.90;99.90;;;;;;4950530;29;20142;-72
2022/09/14 06:42:04;;;;;;;3.67;1.20;;;14.90;99.90;;;;;;4952947;29;20036;-72
2022/09/14 06:44:29;;;;;;;6.97;2.15;;;14.90;99.90;;;;;;4950764;29;20030;-72
2022/09/14 06:46:55;;;;;;;6.53;1.77;;;15.00;99.90;;;;;;4952186;29;20054;-72
2022/09/14 06:49:22;;;;;;;4.70;1.92;;;15.00;99.90;;;;;;4946787;29;20042;-73
2022/09/14 06:51:49;;;;;;;2.53;1.52;;;15.00;99.90;;;;;;4945723;29;20627;-72
2022/09/14 06:54:16;;;;;;;3.03;1.42;;;15.10;99.90;;;;;;4947663;29;21208;-72
2022/09/14 06:56:42;;;;;;;3.13;1.58;;;15.10;99.90;;;;;;4950528;29;20069;-72
2022/09/14 06:59:10;;;;;;;4.15;1.38;;;15.10;99.90;;;;;;4950139;29;20083;-71
2022/09/14 07:01:36;;;;;;;0.90;0.75;;;15.10;99.90;;;;;;4950817;29;20388;-71
2022/09/14 07:04:02;;;;;;;2.33;1.35;;;15.10;99.90;;;;;;4950699;29;20059;-70
2022/09/14 07:06:31;;;;;;;6.45;1.77;;;15.20;99.90;;;;;;4950086;29;20015;-72
2022/09/14 07:08:56;;;;;;;2.53;1.40;;;15.30;99.90;;;;;;4952572;29;20365;-72
2022/09/14 07:11:25;;;;;;;7.47;1.48;;;15.30;99.90;;;;;;4952543;28;20035;-71
2022/09/14 07:13:53;;;;;;;5.70;0.95;;;15.40;99.90;;;;;;4954684;29;20039;-74
2022/09/14 07:16:20;;;;;;;9.52;1.77;;;15.40;99.90;;;;;;4954680;29;20075;-72
2022/09/14 07:18:45;;;;;;;6.97;1.60;;;15.50;99.90;;;;;;4956167;29;20060;-71
2022/09/14 07:21:18;;;;;;;5.20;1.60;;;15.50;99.90;;;;;;4955195;29;20032;-72
2022/09/14 07:23:45;;;;;;;3.58;1.20;;;15.60;99.90;;;;;;4956069;29;20425;-71
2022/09/14 07:26:12;;;;;;;1.67;1.13;;;15.60;99.90;;;;;;4954855;29;20080;-71
2022/09/14 07:28:38;;;;;;;1.40;0.93;;;15.60;99.90;;;;;;4955109;29;20066;-72
2022/09/14 07:31:12;;;;;;;3.22;1.35;;;15.60;99.90;;;;;;4954535;29;20063;-71
2022/09/14 07:33:38;;;;;;;1.17;0.90;;;15.70;99.90;;;;;;4953596;29;20043;-72
2022/09/14 07:36:06;;;;;;;1.90;1.23;;;15.60;99.90;;;;;;4950063;29;20040;-72
2022/09/14 07:38:32;;;;;;;4.05;1.45;;;15.70;99.90;;;;;;4953485;29;20060;-72
2022/09/14 07:41:00;;;;;;;1.95;0.90;;;15.70;99.90;;;;;;4944820;29;20023;-72
2022/09/14 07:43:28;;;;;;;8.57;1.52;;;15.80;99.90;;;;;;4945234;29;20076;-73
2022/09/14 07:45:55;;;;;;;4.93;1.17;;;15.90;99.90;;;;;;4953706;29;20491;-72
2022/09/14 07:48:21;;;;;;;7.25;1.85;;;16.00;99.90;;;;;;4954134;29;20042;-72
2022/09/14 07:50:47;;;;;;;6.60;1.25;;;16.10;99.90;;;;;;4954323;29;20031;-70
2022/09/14 07:53:13;;;;;;;2.88;0.93;;;16.20;99.90;;;;;;4953927;29;20031;-72
2022/09/14 07:55:39;;;;;;;3.85;0.90;;;16.30;99.90;;;;;;4954627;29;20030;-71
2022/09/14 07:58:06;;;;;;;2.00;0.98;;;16.40;99.90;;;;;;4950688;29;20051;-71
2022/09/14 08:00:32;;;;;;;11.02;1.23;;;16.50;99.90;;;;;;4954566;29;20487;-70
2022/09/14 08:02:58;;;;;;;8.20;1.00;;;16.70;99.90;;;;;;4935773;29;20031;-71
2022/09/14 08:05:25;;;;;;;2.17;0.70;;;16.80;99.90;;;;;;4950503;29;20023;-71
2022/09/14 08:07:57;;;;;;;7.97;0.95;;;16.90;99.90;;;;;;4951732;29;20023;-72
2022/09/14 08:10:23;;;;;;;3.35;1.08;;;17.00;99.90;;;;;;4954637;29;20050;-72
2022/09/14 08:12:53;;;;;;;2.17;0.90;;;17.00;99.90;;;;;;4955054;29;20031;-72
2022/09/14 08:15:22;;;;;;;4.15;1.38;;;17.00;99.90;;;;;;4952700;29;20032;-71
2022/09/14 08:17:48;;;;;;;7.30;1.20;;;17.00;99.90;;;;;;4954361;29;20058;-71
2022/09/14 08:20:15;;;;;;;1.80;0.95;;;17.00;99.90;;;;;;4954505;29;20019;-71
2022/09/14 08:22:44;;;;;;;3.42;1.00;;;17.10;99.90;;;;;;4952934;28;20020;-72
2022/09/14 08:25:10;;;;;;;4.03;1.08;;;17.10;99.90;;;;;;4952488;29;20019;-71
2022/09/14 08:27:36;;;;;;;1.77;0.70;;;17.10;99.90;;;;;;4955693;29;20042;-73
2022/09/14 08:30:02;;;;;;;1.75;0.63;;;17.10;99.90;;;;;;4951936;29;20028;-70
2022/09/14 08:32:28;;;;;;;1.70;0.82;;;17.10;99.90;;;;;;4954973;29;20027;-71
2022/09/14 08:34:54;;;;;;;5.53;0.90;;;17.10;99.90;;;;;;4938437;29;20035;-71
2022/09/14 08:37:20;;;;;;;6.93;1.00;;;17.10;99.90;;;;;;4953818;28;20032;-70
2022/09/14 08:39:45;;;;;;;12.70;1.38;;;17.10;99.90;;;;;;4954446;29;20621;-71
2022/09/14 08:42:21;;;;;;;3.63;0.93;;;17.10;99.90;;;;;;4937809;29;20054;-71
2022/09/14 08:45:02;;;;;;;2.25;0.77;;;17.00;99.90;;;;;;4953332;29;20115;-71
2022/09/14 08:47:33;;;;;;;15.90;1.15;;;17.00;99.90;;;;;;4936272;29;20031;-71
2022/09/14 08:50:16;;;;;;;2.30;0.70;;;17.10;99.90;;;;;;4954921;29;20066;-72
2022/09/14 08:52:48;;;;;;;1.63;0.88;;;17.10;99.90;;;;;;4951407;29;20047;-72
2022/09/14 08:55:28;;;;;;;7.88;1.00;;;17.40;99.90;;;;;;4954189;29;20106;-71
2022/09/14 08:58:09;;;;;;;0.80;0.47;;;17.40;99.90;;;;;;4953286;29;20042;-70
2022/09/14 09:00:44;;;;;;;4.57;0.82;;;17.50;99.90;;;;;;4954096;29;20027;-71
2022/09/14 09:03:28;;;;;;;3.70;0.75;;;17.60;99.90;;;;;;4955113;29;20035;-70
2022/09/14 09:06:05;;;;;;;0.40;0.40;;;17.70;99.90;;;;;;4953842;29;20027;-72
2022/09/14 09:08:37;;;;;;;3.05;0.98;;;17.80;99.90;;;;;;4953887;29;20040;-70
2022/09/14 09:11:06;;;;;;;1.15;0.77;;;17.80;99.90;;;;;;4954616;29;20083;-71
2022/09/14 09:13:35;;;;;;;5.78;0.77;;;17.80;99.90;;;;;;4952852;29;20090;-73
2022/09/14 09:16:04;;;;;;;0.52;0.47;;;17.90;99.90;;;;;;4949238;29;20051;-70
2022/09/14 09:18:41;;;;;;;5.47;0.95;;;18.00;99.90;;;;;;4931906;29;20047;-71
2022/09/14 09:21:19;;;;;;;0.65;0.60;;;18.00;99.90;;;;;;4953089;29;20023;-71
2022/09/14 09:23:45;;;;;;;7.13;0.40;;;18.10;99.90;;;;;;4953872;29;20063;-70
2022/09/14 09:26:31;;;;;;;2.38;1.00;;;18.20;99.90;;;;;;4953818;29;20475;-71
2022/09/14 09:29:00;;;;;;;6.43;1.15;;;18.40;99.90;;;;;;4936136;29;20142;-71
2022/09/14 09:31:38;;;;;;;8.32;1.13;;;18.60;99.90;;;;;;4954260;29;20032;-73
2022/09/14 09:34:05;;;;;;;3.38;0.70;;;18.80;99.90;;;;;;4953129;29;20031;-71
2022/09/14 09:36:38;;;;;;;2.42;0.70;;;18.90;99.90;;;;;;4934035;29;20031;-73
2022/09/14 09:39:04;;;;;;;5.10;1.10;;;18.90;99.90;;;;;;4952005;29;20056;-69
2022/09/14 09:41:55;;;;;;;2.67;0.47;;;18.90;99.90;;;;;;4952707;29;20051;-72
2022/09/14 09:44:21;;;;;;;2.42;0.40;;;18.90;99.90;;;;;;4949562;28;20036;-70
2022/09/14 09:46:58;;;;;;;2.80;0.75;;;18.90;99.90;;;;;;4951931;29;20031;-73
2022/09/14 09:49:38;;;;;;;1.30;0.60;;;19.10;99.90;;;;;;4952299;29;20125;-72
2022/09/14 09:52:15;;;;;;;1.63;0.80;;;19.20;99.90;;;;;;4950996;29;20035;-72
2022/09/14 09:54:52;;;;;;;0.45;0.40;;;19.20;99.90;;;;;;4947805;29;20031;-71
2022/09/14 09:57:28;;;;;;;0.85;0.65;;;19.20;99.90;;;;;;4950229;28;20062;-71
2022/09/14 10:00:19;;;;;;;1.00;0.47;;;19.20;99.90;;;;;;4952056;29;20512;-73
2022/09/14 10:02:45;;;;;;;3.63;0.88;;;19.20;99.90;;;;;;4941312;29;20054;-70
2022/09/14 10:05:21;;;;;;;3.38;0.90;;;19.20;99.90;;;;;;4948844;29;20090;-72
2022/09/14 10:07:58;;;;;;;1.33;0.38;;;19.30;99.90;;;;;;4952119;29;20127;-72
2022/09/14 10:10:35;;;;;;;2.75;0.88;;;19.30;99.90;;;;;;4952643;29;20035;-72
2022/09/14 10:13:03;;;;;;;3.15;0.88;;;19.40;99.90;;;;;;4952519;29;20083;-70
2022/09/14 10:15:31;;;;;;;3.55;0.63;;;19.50;99.90;;;;;;4951942;29;20078;-73
2022/09/14 10:18:00;;;;;;;1.50;0.68;;;19.50;99.90;;;;;;4953783;29;20376;-70
2022/09/14 10:20:26;;;;;;;8.68;0.90;;;19.60;99.90;;;;;;4934998;29;20039;-71
2022/09/14 10:22:53;;;;;;;3.03;0.80;;;19.50;99.90;;;;;;4951856;29;20024;-71
2022/09/14 10:25:21;;;;;;;5.15;0.93;;;19.50;99.90;;;;;;4953476;29;20094;-69
2022/09/14 10:27:57;;;;;;;2.42;0.47;;;19.40;99.90;;;;;;4953304;29;20031;-70
2022/09/14 10:30:26;;;;;;;4.80;1.17;;;19.40;99.90;;;;;;4953009;29;20038;-70
2022/09/14 10:33:04;;;;;;;1.88;0.47;;;19.40;99.90;;;;;;4953914;29;20039;-72
2022/09/14 10:35:54;;;;;;;1.80;0.60;;;19.30;99.90;;;;;;4953673;29;20090;-71
2022/09/14 10:38:32;;;;;;;2.72;0.60;;;19.30;99.90;;;;;;4952362;28;20520;-69
2022/09/14 10:41:16;;;;;;;2.40;0.73;;;19.40;99.90;;;;;;4936192;29;20031;-72
2022/09/14 10:44:01;;;;;;;2.63;0.70;;;19.60;99.90;;;;;;4952644;29;20042;-72
2022/09/14 10:46:33;;;;;;;;;;;19.70;99.90;;;;;;4954508;28;20028;-70
2022/09/14 10:49:17;;;;;;;3.92;0.70;;;19.80;99.90;;;;;;4956500;29;19954;-69
2022/09/14 10:52:20;;;;;;;4.03;1.13;;;19.90;99.90;;;;;;4956566;29;20099;-71
2022/09/14 10:55:33;;;;;;;5.07;0.60;;;19.80;99.90;;;;;;4956890;29;20027;-71
2022/09/14 10:58:33;;;;;;;2.80;0.60;;;19.80;99.90;;;;;;4956961;29;20039;-70
2022/09/14 11:01:01;;;;;;;14.68;1.00;;;19.80;99.90;;;;;;4956254;29;20028;-72
2022/09/14 11:04:05;;;;;;;0.85;0.35;;;19.90;99.90;;;;;;4956695;29;20047;-70
2022/09/14 11:06:53;;;;;;;1.08;0.60;;;19.90;99.90;;;;;;4956985;29;20039;-71
2022/09/14 11:09:34;;;;;;;0.80;0.50;;;19.90;99.90;;;;;;4956637;29;20524;-70
2022/09/14 11:12:05;;;;;;;2.60;0.57;;;20.00;99.90;;;;;;4956085;29;20027;-72
2022/09/14 11:14:47;;;;;;;7.57;0.77;;;20.10;99.90;;;;;;4956732;29;20391;-72
2022/09/14 11:17:28;;;;;;;1.27;0.52;;;20.20;99.90;;;;;;4938990;29;20031;-71
2022/09/14 11:20:18;;;;;;;3.13;0.73;;;20.30;99.90;;;;;;4955893;29;20099;-71
2022/09/14 11:23:01;;;;;;;0.65;0.45;;;20.40;99.90;;;;;;4955800;29;20036;-70
2022/09/14 11:25:37;;;;;;;1.10;0.70;;;20.50;99.90;;;;;;4956417;29;20420;-71
2022/09/14 11:28:10;;;;;;;0.57;0.30;;;20.60;99.90;;;;;;4954006;29;20035;-72
2022/09/14 11:30:43;;;;;;;0.63;0.35;;;20.90;99.90;;;;;;4954180;29;20043;-72
2022/09/14 11:33:12;;;;;;;0.60;0.50;;;21.00;99.90;;;;;;4955068;29;20023;-72
2022/09/14 11:35:43;;;;;;;0.75;0.30;;;21.10;99.90;;;;;;4953761;29;20024;-71
2022/09/14 11:38:19;;;;;;;2.92;0.80;;;21.00;99.90;;;;;;4950852;29;20419;-70
2022/09/14 11:41:23;;;;;;;0.38;0.32;;;21.00;99.90;;;;;;4954198;29;20055;-69
2022/09/14 11:44:09;;;;;;;0.20;0.20;;;20.90;99.90;;;;;;4950512;29;20054;-71
2022/09/14 11:46:45;;;;;;;3.13;0.77;;;20.80;99.90;;;;;;4954285;29;20024;-71
2022/09/14 11:49:39;;;;;;;0.50;0.25;;;20.80;99.90;;;;;;4955452;29;20036;-71
2022/09/14 11:52:27;;;;;;;9.38;0.57;;;20.90;99.90;;;;;;4955145;29;20040;-72
2022/09/14 11:54:54;;;;;;;5.50;0.93;;;21.00;99.90;;;;;;4954545;29;20027;-70
2022/09/14 11:57:32;;;;;;;1.48;0.43;;;21.00;99.90;;;;;;4954945;28;20042;-71
2022/09/14 12:00:00;;;;;;;2.47;0.65;;;20.90;99.90;;;;;;4955032;29;20497;-72
2022/09/14 12:02:29;;;;;;;0.95;0.40;;;20.90;99.90;;;;;;4938233;29;20062;-71
2022/09/14 12:05:09;;;;;;;2.28;0.57;;;20.90;99.90;;;;;;4951837;29;20035;-74
2022/09/14 12:07:41;;;;;;;2.50;0.70;;;21.20;99.90;;;;;;4950588;29;20039;-70
2022/09/14 12:10:28;;;;;;;6.25;0.82;;;21.30;99.90;;;;;;4951873;29;20023;-71
2022/09/14 12:12:58;;;;;;;1.67;0.65;;;21.20;99.90;;;;;;4954452;29;20023;-71
2022/09/14 12:15:26;;;;;;;0.65;0.40;;;21.00;99.90;;;;;;4954594;29;20031;-72
2022/09/14 12:18:06;;;;;;;1.92;0.68;;;20.80;99.90;;;;;;4955178;29;20043;-71
2022/09/14 12:20:51;;;;;;;3.55;0.50;;;20.60;99.90;;;;;;4952644;29;20060;-72
2022/09/14 12:23:41;;;;;;;0.45;0.30;;;20.40;99.90;;;;;;4954973;29;20038;-72
2022/09/14 12:26:09;;;;;;;0.65;0.40;;;20.30;99.90;;;;;;4953857;29;20039;-71
2022/09/14 12:28:35;;;;;;;3.50;1.05;;;20.10;99.90;;;;;;4954110;29;20031;-72
2022/09/14 12:31:03;;;;;;;6.55;1.08;;;20.00;99.90;;;;;;4952026;29;20200;-72
2022/09/14 12:33:32;;;;;;;4.03;1.13;;;19.90;99.90;;;;;;4952412;29;20035;-72
2022/09/14 12:36:05;;;;;;;0.63;0.40;;;19.70;99.90;;;;;;4953895;29;20028;-73
2022/09/14 12:38:39;;;;;;;1.80;0.85;;;19.60;99.90;;;;;;4954015;29;20065;-73
2022/09/14 12:41:14;;;;;;;11.10;0.63;;;19.50;99.90;;;;;;4955198;29;20058;-73
2022/09/14 12:43:48;;;;;;;3.33;1.00;;;19.50;99.90;;;;;;4952477;29;20545;-73
2022/09/14 12:46:20;;;;;;;1.65;0.40;;;19.50;99.90;;;;;;4952902;29;20039;-73
2022/09/14 12:48:46;;;;;;;9.10;1.27;;;19.40;99.90;;;;;;4954779;29;20031;-73
2022/09/14 12:51:30;;;;;;;1.58;0.77;;;19.50;99.90;;;;;;4954208;29;20043;-72
2022/09/14 12:54:08;;;;;;;3.72;0.95;;;19.40;99.90;;;;;;4938123;29;20534;-72
2022/09/14 12:56:42;;;;;;;8.40;1.00;;;19.40;99.90;;;;;;4952861;29;20086;-72
2022/09/14 12:59:38;;;;;;;3.42;0.95;;;19.40;99.90;;;;;;4954302;29;20036;-73
2022/09/14 13:02:22;;;;;;;1.48;0.68;;;19.40;99.90;;;;;;4937642;29;20050;-73
2022/09/14 13:04:56;;;;;;;0.65;0.45;;;19.40;99.90;;;;;;4954139;29;20071;-73
2022/09/14 13:07:32;;;;;;;2.10;0.70;;;19.40;99.90;;;;;;4955014;29;20125;-74
2022/09/14 13:10:00;;;;;;;3.10;0.85;;;19.40;99.90;;;;;;4954576;29;20035;-73
2022/09/14 13:12:38;;;;;;;1.77;0.70;;;19.30;99.90;;;;;;4953754;29;20051;-73